sensor_id;sensor_type;location;lat;lon;timestamp;temperature;humidity
62072;DHT22;48031;48.542;13.232;2022-08-19T00:01:41;22.00;8.40
62072;DHT22;48031;48.542;13.232;2022-08-19T00:04:09;21.50;1.00
62072;DHT22;48031;48.542;13.232;2022-08-19T00:11:31;22.00;1.00
62072;DHT22;48031;48.542;13.232;2022-08-19T00:13:58;21.60;1.00
62072;DHT22;48031;48.542;13.232;2022-08-19T00:18:53;21.30;1.00
62072;DHT22;48031;48.542;13.232;2022-08-19T00:21:22;21.70;1.00
62072;DHT22;48031;48.542;13.232;2022-08-19T00:28:44;21.50;1.00
62072;DHT22;48031;48.542;13.232;2022-08-19T00:33:38;22.10;1.00
62072;DHT22;48031;48.542;13.232;2022-08-19T00:48:26;22.20;1.00
62072;DHT22;48031;48.542;13.232;2022-08-19T00:50:53;22.20;1.00
62072;DHT22;48031;48.542;13.232;2022-08-19T00:55:48;21.70;1.00
62072;DHT22;48031;48.542;13.232;2022-08-19T01:10:52;21.40;1.00
62072;DHT22;48031;48.542;13.232;2022-08-19T01:18:15;21.50;1.00
62072;DHT22;48031;48.542;13.232;2022-08-19T01:20:43;21.80;1.00
62072;DHT22;48031;48.542;13.232;2022-08-19T01:25:42;20.70;1.00
62072;DHT22;48031;48.542;13.232;2022-08-19T01:28:29;21.00;1.00
62072;DHT22;48031;48.542;13.232;2022-08-19T01:36:05;20.80;1.00
62072;DHT22;48031;48.542;13.232;2022-08-19T01:38:34;19.70;1.00
62072;DHT22;48031;48.542;13.232;2022-08-19T01:41:11;19.80;1.00
62072;DHT22;48031;48.542;13.232;2022-08-19T01:46:25;22.80;1.00
62072;DHT22;48031;48.542;13.232;2022-08-19T01:48:52;22.60;1.00
62072;DHT22;48031;48.542;13.232;2022-08-19T01:53:47;22.10;1.00
62072;DHT22;48031;48.542;13.232;2022-08-19T01:56:14;22.10;1.00
62072;DHT22;48031;48.542;13.232;2022-08-19T02:01:08;22.40;1.00
62072;DHT22;48031;48.542;13.232;2022-08-19T02:08:29;22.00;1.00
62072;DHT22;48031;48.542;13.232;2022-08-19T02:15:52;22.00;1.00
62072;DHT22;48031;48.542;13.232;2022-08-19T02:18:19;21.90;1.00
62072;DHT22;48031;48.542;13.232;2022-08-19T02:20:46;22.00;1.00
62072;DHT22;48031;48.542;13.232;2022-08-19T02:25:42;21.90;1.00
62072;DHT22;48031;48.542;13.232;2022-08-19T02:28:11;20.20;1.00
62072;DHT22;48031;48.542;13.232;2022-08-19T02:33:11;22.00;1.00
62072;DHT22;48031;48.542;13.232;2022-08-19T02:35:40;19.80;1.00
62072;DHT22;48031;48.542;13.232;2022-08-19T02:38:08;21.60;1.00
62072;DHT22;48031;48.542;13.232;2022-08-19T02:40:56;21.50;1.00
62072;DHT22;48031;48.542;13.232;2022-08-19T02:43:24;21.70;1.00
62072;DHT22;48031;48.542;13.232;2022-08-19T02:45:53;19.70;1.00
62072;DHT22;48031;48.542;13.232;2022-08-19T02:48:20;20.70;1.00
62072;DHT22;48031;48.542;13.232;2022-08-19T02:50:48;19.40;1.00
62072;DHT22;48031;48.542;13.232;2022-08-19T02:53:19;20.40;1.00
62072;DHT22;48031;48.542;13.232;2022-08-19T02:55:46;22.80;1.00
62072;DHT22;48031;48.542;13.232;2022-08-19T02:58:14;21.70;1.00
62072;DHT22;48031;48.542;13.232;2022-08-19T03:00:42;22.50;1.00
62072;DHT22;48031;48.542;13.232;2022-08-19T03:03:10;22.70;1.00
62072;DHT22;48031;48.542;13.232;2022-08-19T03:05:37;22.80;1.20
62072;DHT22;48031;48.542;13.232;2022-08-19T03:08:21;23.00;1.90
62072;DHT22;48031;48.542;13.232;2022-08-19T03:10:49;22.70;3.40
62072;DHT22;48031;48.542;13.232;2022-08-19T03:13:16;23.00;2.70
62072;DHT22;48031;48.542;13.232;2022-08-19T03:23:06;22.00;8.30
62072;DHT22;48031;48.542;13.232;2022-08-19T03:28:01;19.60;6.90
62072;DHT22;48031;48.542;13.232;2022-08-19T03:30:28;22.30;4.40
62072;DHT22;48031;48.542;13.232;2022-08-19T03:32:56;22.00;4.10
62072;DHT22;48031;48.542;13.232;2022-08-19T03:35:25;21.00;3.60
62072;DHT22;48031;48.542;13.232;2022-08-19T03:37:53;21.70;2.50
62072;DHT22;48031;48.542;13.232;2022-08-19T03:40:20;20.00;3.20
62072;DHT22;48031;48.542;13.232;2022-08-19T03:42:47;20.20;3.60
62072;DHT22;48031;48.542;13.232;2022-08-19T03:45:15;20.80;3.10
62072;DHT22;48031;48.542;13.232;2022-08-19T03:47:43;21.80;5.20
62072;DHT22;48031;48.542;13.232;2022-08-19T03:50:10;22.30;5.20
62072;DHT22;48031;48.542;13.232;2022-08-19T03:52:37;22.70;6.40
62072;DHT22;48031;48.542;13.232;2022-08-19T03:55:11;22.40;5.70
62072;DHT22;48031;48.542;13.232;2022-08-19T03:57:38;22.30;6.40
62072;DHT22;48031;48.542;13.232;2022-08-19T04:02:39;21.60;6.70
62072;DHT22;48031;48.542;13.232;2022-08-19T04:05:06;22.50;7.10
62072;DHT22;48031;48.542;13.232;2022-08-19T04:07:34;22.40;7.20
62072;DHT22;48031;48.542;13.232;2022-08-19T04:10:03;21.20;6.60
62072;DHT22;48031;48.542;13.232;2022-08-19T04:12:30;20.70;6.60
62072;DHT22;48031;48.542;13.232;2022-08-19T04:14:57;20.10;6.20
62072;DHT22;48031;48.542;13.232;2022-08-19T04:17:25;20.10;6.40
62072;DHT22;48031;48.542;13.232;2022-08-19T04:19:52;22.70;8.00
62072;DHT22;48031;48.542;13.232;2022-08-19T04:22:19;20.40;6.80
62072;DHT22;48031;48.542;13.232;2022-08-19T04:24:47;19.30;6.60
62072;DHT22;48031;48.542;13.232;2022-08-19T04:27:14;21.60;8.00
62072;DHT22;48031;48.542;13.232;2022-08-19T04:29:43;20.20;7.50
62072;DHT22;48031;48.542;13.232;2022-08-19T04:32:10;21.00;9.10
62072;DHT22;48031;48.542;13.232;2022-08-19T04:34:37;21.30;9.10
62072;DHT22;48031;48.542;13.232;2022-08-19T04:37:26;21.00;9.00
62072;DHT22;48031;48.542;13.232;2022-08-19T04:40:02;20.10;9.10
62072;DHT22;48031;48.542;13.232;2022-08-19T04:42:48;20.60;8.20
62072;DHT22;48031;48.542;13.232;2022-08-19T04:45:15;20.10;9.00
62072;DHT22;48031;48.542;13.232;2022-08-19T05:47:23;22.20;7.50
62072;DHT22;48031;48.542;13.232;2022-08-19T05:49:50;22.40;8.80
62072;DHT22;48031;48.542;13.232;2022-08-19T05:57:19;22.30;7.50
62072;DHT22;48031;48.542;13.232;2022-08-19T06:04:46;21.50;3.70
62072;DHT22;48031;48.542;13.232;2022-08-19T07:17:19;23.70;1.00
62072;DHT22;48031;48.542;13.232;2022-08-19T08:07:32;26.30;1.00
62072;DHT22;48031;48.542;13.232;2022-08-19T08:10:17;26.20;1.00
62072;DHT22;48031;48.542;13.232;2022-08-19T08:12:47;26.00;1.00
62072;DHT22;48031;48.542;13.232;2022-08-19T08:20:36;26.70;1.00
62072;DHT22;48031;48.542;13.232;2022-08-19T08:23:03;26.70;1.00
62072;DHT22;48031;48.542;13.232;2022-08-19T08:25:49;25.50;1.00
62072;DHT22;48031;48.542;13.232;2022-08-19T08:28:16;25.40;1.00
62072;DHT22;48031;48.542;13.232;2022-08-19T08:30:44;25.20;1.00
62072;DHT22;48031;48.542;13.232;2022-08-19T08:33:13;26.00;1.00
62072;DHT22;48031;48.542;13.232;2022-08-19T08:35:45;26.10;1.00
62072;DHT22;48031;48.542;13.232;2022-08-19T08:38:12;26.00;1.00
62072;DHT22;48031;48.542;13.232;2022-08-19T08:40:47;26.10;1.00
62072;DHT22;48031;48.542;13.232;2022-08-19T08:45:47;23.60;1.00
62072;DHT22;48031;48.542;13.232;2022-08-19T08:48:22;25.70;1.00
62072;DHT22;48031;48.542;13.232;2022-08-19T08:50:50;25.70;1.00
62072;DHT22;48031;48.542;13.232;2022-08-19T08:53:19;23.40;1.00
62072;DHT22;48031;48.542;13.232;2022-08-19T08:55:57;22.90;1.00
62072;DHT22;48031;48.542;13.232;2022-08-19T08:58:37;23.30;1.00
62072;DHT22;48031;48.542;13.232;2022-08-19T09:01:09;26.00;1.00
62072;DHT22;48031;48.542;13.232;2022-08-19T09:03:37;26.40;1.00
62072;DHT22;48031;48.542;13.232;2022-08-19T09:06:12;26.40;1.00
62072;DHT22;48031;48.542;13.232;2022-08-19T09:08:45;26.60;1.00
62072;DHT22;48031;48.542;13.232;2022-08-19T09:11:26;26.30;1.00
62072;DHT22;48031;48.542;13.232;2022-08-19T09:17:09;26.80;1.00
62072;DHT22;48031;48.542;13.232;2022-08-19T09:19:54;26.50;1.00
62072;DHT22;48031;48.542;13.232;2022-08-19T09:22:21;26.30;1.00
62072;DHT22;48031;48.542;13.232;2022-08-19T09:24:51;24.20;1.00
62072;DHT22;48031;48.542;13.232;2022-08-19T09:27:21;25.90;1.00
62072;DHT22;48031;48.542;13.232;2022-08-19T09:30:10;25.60;1.00
62072;DHT22;48031;48.542;13.232;2022-08-19T09:32:38;25.80;1.00
62072;DHT22;48031;48.542;13.232;2022-08-19T09:35:05;26.10;1.00
62072;DHT22;48031;48.542;13.232;2022-08-19T09:37:34;25.90;1.00
62072;DHT22;48031;48.542;13.232;2022-08-19T09:40:02;26.30;1.00
62072;DHT22;48031;48.542;13.232;2022-08-19T09:42:30;26.20;1.00
62072;DHT22;48031;48.542;13.232;2022-08-19T09:45:01;26.80;1.00
62072;DHT22;48031;48.542;13.232;2022-08-19T09:47:30;27.90;1.00
62072;DHT22;48031;48.542;13.232;2022-08-19T09:52:26;30.50;1.00
62072;DHT22;48031;48.542;13.232;2022-08-19T09:54:58;30.40;1.00
62072;DHT22;48031;48.542;13.232;2022-08-19T09:57:26;31.90;1.00
62072;DHT22;48031;48.542;13.232;2022-08-19T09:59:53;33.30;1.00
62072;DHT22;48031;48.542;13.232;2022-08-19T10:02:20;33.10;1.00
62072;DHT22;48031;48.542;13.232;2022-08-19T10:04:48;33.50;1.00
62072;DHT22;48031;48.542;13.232;2022-08-19T10:07:33;33.70;1.00
62072;DHT22;48031;48.542;13.232;2022-08-19T10:10:05;32.30;1.00
62072;DHT22;48031;48.542;13.232;2022-08-19T10:12:33;30.40;1.00
62072;DHT22;48031;48.542;13.232;2022-08-19T10:15:00;31.40;1.00
62072;DHT22;48031;48.542;13.232;2022-08-19T10:17:29;30.90;1.00
62072;DHT22;48031;48.542;13.232;2022-08-19T10:19:59;29.00;1.00
62072;DHT22;48031;48.542;13.232;2022-08-19T10:22:26;29.60;1.00
62072;DHT22;48031;48.542;13.232;2022-08-19T10:24:53;30.00;1.00
62072;DHT22;48031;48.542;13.232;2022-08-19T10:27:20;30.80;1.00
62072;DHT22;48031;48.542;13.232;2022-08-19T10:29:47;32.20;1.00
62072;DHT22;48031;48.542;13.232;2022-08-19T10:32:14;34.70;1.00
62072;DHT22;48031;48.542;13.232;2022-08-19T10:34:42;39.00;1.00
62072;DHT22;48031;48.542;13.232;2022-08-19T10:37:15;38.80;1.00
62072;DHT22;48031;48.542;13.232;2022-08-19T10:39:57;37.10;1.00
62072;DHT22;48031;48.542;13.232;2022-08-19T10:42:24;36.70;1.00
62072;DHT22;48031;48.542;13.232;2022-08-19T10:44:51;35.30;1.00
62072;DHT22;48031;48.542;13.232;2022-08-19T10:47:18;33.50;1.00
62072;DHT22;48031;48.542;13.232;2022-08-19T10:49:52;33.80;1.00
62072;DHT22;48031;48.542;13.232;2022-08-19T10:52:39;32.10;1.00
62072;DHT22;48031;48.542;13.232;2022-08-19T10:55:17;31.80;1.00
62072;DHT22;48031;48.542;13.232;2022-08-19T11:00:30;32.10;1.00
62072;DHT22;48031;48.542;13.232;2022-08-19T11:02:58;32.30;1.00
62072;DHT22;48031;48.542;13.232;2022-08-19T11:05:25;32.20;1.00
62072;DHT22;48031;48.542;13.232;2022-08-19T11:07:52;34.10;1.00
62072;DHT22;48031;48.542;13.232;2022-08-19T11:10:19;34.20;1.00
62072;DHT22;48031;48.542;13.232;2022-08-19T11:12:48;33.50;1.00
62072;DHT22;48031;48.542;13.232;2022-08-19T11:15:15;34.70;1.00
62072;DHT22;48031;48.542;13.232;2022-08-19T11:17:42;35.60;1.00
62072;DHT22;48031;48.542;13.232;2022-08-19T11:20:13;38.10;1.00
62072;DHT22;48031;48.542;13.232;2022-08-19T11:22:40;38.60;1.00
62072;DHT22;48031;48.542;13.232;2022-08-19T11:25:09;38.00;1.00
62072;DHT22;48031;48.542;13.232;2022-08-19T11:27:37;39.30;1.00
62072;DHT22;48031;48.542;13.232;2022-08-19T11:30:05;38.20;1.00
62072;DHT22;48031;48.542;13.232;2022-08-19T11:32:38;39.70;1.00
62072;DHT22;48031;48.542;13.232;2022-08-19T11:35:05;41.10;1.00
62072;DHT22;48031;48.542;13.232;2022-08-19T11:37:33;39.40;1.00
62072;DHT22;48031;48.542;13.232;2022-08-19T11:40:05;38.20;1.00
62072;DHT22;48031;48.542;13.232;2022-08-19T11:42:32;36.90;1.00
62072;DHT22;48031;48.542;13.232;2022-08-19T11:45:18;37.10;1.00
62072;DHT22;48031;48.542;13.232;2022-08-19T11:47:45;37.90;1.00
62072;DHT22;48031;48.542;13.232;2022-08-19T11:50:13;37.00;1.00
62072;DHT22;48031;48.542;13.232;2022-08-19T11:52:40;34.70;1.00
62072;DHT22;48031;48.542;13.232;2022-08-19T11:55:07;35.70;1.00
62072;DHT22;48031;48.542;13.232;2022-08-19T11:57:35;35.00;1.00
62072;DHT22;48031;48.542;13.232;2022-08-19T12:00:02;34.30;1.00
62072;DHT22;48031;48.542;13.232;2022-08-19T12:02:31;37.90;1.00
62072;DHT22;48031;48.542;13.232;2022-08-19T12:04:58;41.60;1.00
62072;DHT22;48031;48.542;13.232;2022-08-19T12:07:25;40.80;1.00
62072;DHT22;48031;48.542;13.232;2022-08-19T12:09:52;38.60;1.00
62072;DHT22;48031;48.542;13.232;2022-08-19T12:12:20;37.50;1.00
62072;DHT22;48031;48.542;13.232;2022-08-19T12:14:48;39.70;1.00
62072;DHT22;48031;48.542;13.232;2022-08-19T12:17:17;36.50;1.00
62072;DHT22;48031;48.542;13.232;2022-08-19T12:19:44;38.10;1.00
62072;DHT22;48031;48.542;13.232;2022-08-19T12:22:11;35.60;1.00
62072;DHT22;48031;48.542;13.232;2022-08-19T12:24:38;36.40;1.00
62072;DHT22;48031;48.542;13.232;2022-08-19T12:27:05;35.90;1.00
62072;DHT22;48031;48.542;13.232;2022-08-19T12:29:38;36.90;1.00
62072;DHT22;48031;48.542;13.232;2022-08-19T12:32:05;37.30;1.00
62072;DHT22;48031;48.542;13.232;2022-08-19T12:34:36;37.70;1.00
62072;DHT22;48031;48.542;13.232;2022-08-19T12:37:04;38.20;1.00
62072;DHT22;48031;48.542;13.232;2022-08-19T12:39:35;39.40;1.00
62072;DHT22;48031;48.542;13.232;2022-08-19T12:42:03;36.40;1.00
62072;DHT22;48031;48.542;13.232;2022-08-19T12:44:30;35.50;1.00
62072;DHT22;48031;48.542;13.232;2022-08-19T12:46:59;34.70;1.00
62072;DHT22;48031;48.542;13.232;2022-08-19T12:49:29;34.70;1.00
62072;DHT22;48031;48.542;13.232;2022-08-19T12:52:18;34.30;1.00
62072;DHT22;48031;48.542;13.232;2022-08-19T12:54:49;33.40;1.00
62072;DHT22;48031;48.542;13.232;2022-08-19T12:57:21;33.00;1.00
62072;DHT22;48031;48.542;13.232;2022-08-19T13:02:25;31.80;1.00
62072;DHT22;48031;48.542;13.232;2022-08-19T13:04:52;33.40;1.00
62072;DHT22;48031;48.542;13.232;2022-08-19T13:07:20;31.80;1.00
62072;DHT22;48031;48.542;13.232;2022-08-19T13:09:50;32.00;1.00
62072;DHT22;48031;48.542;13.232;2022-08-19T13:12:17;31.90;1.00
62072;DHT22;48031;48.542;13.232;2022-08-19T13:14:50;32.20;1.00
62072;DHT22;48031;48.542;13.232;2022-08-19T13:17:19;31.30;1.00
62072;DHT22;48031;48.542;13.232;2022-08-19T13:19:46;32.80;1.00
62072;DHT22;48031;48.542;13.232;2022-08-19T13:22:13;34.60;1.00
62072;DHT22;48031;48.542;13.232;2022-08-19T13:24:40;37.20;1.00
62072;DHT22;48031;48.542;13.232;2022-08-19T13:27:13;39.40;1.00
62072;DHT22;48031;48.542;13.232;2022-08-19T13:29:40;36.80;1.00
62072;DHT22;48031;48.542;13.232;2022-08-19T13:32:26;38.20;1.00
62072;DHT22;48031;48.542;13.232;2022-08-19T13:35:11;39.00;1.00
62072;DHT22;48031;48.542;13.232;2022-08-19T13:37:42;39.30;1.00
62072;DHT22;48031;48.542;13.232;2022-08-19T13:40:11;37.00;1.00
62072;DHT22;48031;48.542;13.232;2022-08-19T13:42:39;36.20;1.00
62072;DHT22;48031;48.542;13.232;2022-08-19T13:45:06;36.30;1.00
62072;DHT22;48031;48.542;13.232;2022-08-19T13:47:34;33.20;1.00
62072;DHT22;48031;48.542;13.232;2022-08-19T13:50:04;33.10;1.00
62072;DHT22;48031;48.542;13.232;2022-08-19T13:52:31;31.40;1.00
62072;DHT22;48031;48.542;13.232;2022-08-19T13:54:58;31.60;1.00
62072;DHT22;48031;48.542;13.232;2022-08-19T13:57:25;31.80;1.00
62072;DHT22;48031;48.542;13.232;2022-08-19T13:59:52;31.50;1.00
62072;DHT22;48031;48.542;13.232;2022-08-19T14:02:19;32.40;1.00
62072;DHT22;48031;48.542;13.232;2022-08-19T14:04:46;32.60;1.00
62072;DHT22;48031;48.542;13.232;2022-08-19T14:07:13;32.60;1.00
62072;DHT22;48031;48.542;13.232;2022-08-19T14:09:40;34.60;1.00
62072;DHT22;48031;48.542;13.232;2022-08-19T14:12:09;34.80;1.00
62072;DHT22;48031;48.542;13.232;2022-08-19T14:14:36;33.50;1.00
62072;DHT22;48031;48.542;13.232;2022-08-19T14:17:06;32.60;1.00
62072;DHT22;48031;48.542;13.232;2022-08-19T14:19:33;32.50;1.00
62072;DHT22;48031;48.542;13.232;2022-08-19T14:22:00;32.30;1.00
62072;DHT22;48031;48.542;13.232;2022-08-19T14:24:27;31.70;1.00
62072;DHT22;48031;48.542;13.232;2022-08-19T14:26:54;32.90;1.00
62072;DHT22;48031;48.542;13.232;2022-08-19T14:29:21;36.40;1.00
62072;DHT22;48031;48.542;13.232;2022-08-19T14:31:48;38.40;1.00
62072;DHT22;48031;48.542;13.232;2022-08-19T14:34:15;42.00;1.00
62072;DHT22;48031;48.542;13.232;2022-08-19T14:36:42;40.90;1.00
62072;DHT22;48031;48.542;13.232;2022-08-19T14:39:09;43.50;1.00
62072;DHT22;48031;48.542;13.232;2022-08-19T14:41:36;40.90;1.00
62072;DHT22;48031;48.542;13.232;2022-08-19T14:44:03;36.70;1.00
62072;DHT22;48031;48.542;13.232;2022-08-19T14:46:29;35.60;1.00
62072;DHT22;48031;48.542;13.232;2022-08-19T14:48:56;35.00;1.00
62072;DHT22;48031;48.542;13.232;2022-08-19T14:51:26;36.20;1.00
62072;DHT22;48031;48.542;13.232;2022-08-19T14:53:53;35.60;1.00
62072;DHT22;48031;48.542;13.232;2022-08-19T14:56:22;34.10;1.00
62072;DHT22;48031;48.542;13.232;2022-08-19T14:58:49;33.50;1.00
62072;DHT22;48031;48.542;13.232;2022-08-19T15:01:20;32.10;1.00
62072;DHT22;48031;48.542;13.232;2022-08-19T15:03:48;31.30;1.00
62072;DHT22;48031;48.542;13.232;2022-08-19T15:06:15;31.30;1.00
62072;DHT22;48031;48.542;13.232;2022-08-19T15:08:42;32.60;1.00
62072;DHT22;48031;48.542;13.232;2022-08-19T15:11:13;32.50;1.00
62072;DHT22;48031;48.542;13.232;2022-08-19T15:13:41;31.30;1.00
62072;DHT22;48031;48.542;13.232;2022-08-19T15:16:08;30.50;1.00
62072;DHT22;48031;48.542;13.232;2022-08-19T15:18:44;30.20;1.00
62072;DHT22;48031;48.542;13.232;2022-08-19T15:21:12;29.90;1.00
62072;DHT22;48031;48.542;13.232;2022-08-19T15:23:39;29.40;1.00
62072;DHT22;48031;48.542;13.232;2022-08-19T15:26:11;29.50;1.00
62072;DHT22;48031;48.542;13.232;2022-08-19T15:28:41;29.30;1.00
62072;DHT22;48031;48.542;13.232;2022-08-19T15:31:09;29.00;1.00
62072;DHT22;48031;48.542;13.232;2022-08-19T15:33:50;28.90;1.00
62072;DHT22;48031;48.542;13.232;2022-08-19T15:36:18;29.00;1.00
62072;DHT22;48031;48.542;13.232;2022-08-19T15:41:16;28.90;1.00
62072;DHT22;48031;48.542;13.232;2022-08-19T15:44:00;29.00;1.00
62072;DHT22;48031;48.542;13.232;2022-08-19T15:46:27;29.00;1.00
62072;DHT22;48031;48.542;13.232;2022-08-19T15:48:55;29.80;1.00
62072;DHT22;48031;48.542;13.232;2022-08-19T15:51:27;32.00;1.00
62072;DHT22;48031;48.542;13.232;2022-08-19T15:53:56;33.60;1.00
62072;DHT22;48031;48.542;13.232;2022-08-19T15:56:23;34.40;1.00
62072;DHT22;48031;48.542;13.232;2022-08-19T15:58:53;37.40;1.00
62072;DHT22;48031;48.542;13.232;2022-08-19T16:01:38;35.50;1.00
62072;DHT22;48031;48.542;13.232;2022-08-19T16:04:24;35.90;1.00
62072;DHT22;48031;48.542;13.232;2022-08-19T16:07:10;36.80;1.00
62072;DHT22;48031;48.542;13.232;2022-08-19T16:09:38;36.70;1.00
62072;DHT22;48031;48.542;13.232;2022-08-19T16:12:05;33.90;1.00
62072;DHT22;48031;48.542;13.232;2022-08-19T16:14:33;32.50;1.00
62072;DHT22;48031;48.542;13.232;2022-08-19T16:17:00;31.40;1.00
62072;DHT22;48031;48.542;13.232;2022-08-19T16:19:27;30.70;1.00
62072;DHT22;48031;48.542;13.232;2022-08-19T16:24:22;29.00;1.00
62072;DHT22;48031;48.542;13.232;2022-08-19T16:26:50;28.70;1.00
62072;DHT22;48031;48.542;13.232;2022-08-19T16:29:17;28.00;1.00
62072;DHT22;48031;48.542;13.232;2022-08-19T16:32:05;27.00;1.00
62072;DHT22;48031;48.542;13.232;2022-08-19T16:34:32;27.60;1.00
62072;DHT22;48031;48.542;13.232;2022-08-19T16:37:00;26.50;1.00
62072;DHT22;48031;48.542;13.232;2022-08-19T16:39:27;26.00;1.00
62072;DHT22;48031;48.542;13.232;2022-08-19T16:41:54;26.50;1.00
62072;DHT22;48031;48.542;13.232;2022-08-19T16:44:21;25.30;1.00
62072;DHT22;48031;48.542;13.232;2022-08-19T16:46:48;25.50;1.00
62072;DHT22;48031;48.542;13.232;2022-08-19T16:49:28;25.80;1.00
62072;DHT22;48031;48.542;13.232;2022-08-19T16:52:15;24.70;1.00
62072;DHT22;48031;48.542;13.232;2022-08-19T16:54:42;24.80;1.00
62072;DHT22;48031;48.542;13.232;2022-08-19T16:59:38;24.80;1.00
62072;DHT22;48031;48.542;13.232;2022-08-19T17:02:14;25.20;1.00
62072;DHT22;48031;48.542;13.232;2022-08-19T17:04:41;24.30;1.00
62072;DHT22;48031;48.542;13.232;2022-08-19T17:09:36;24.60;1.00
62072;DHT22;48031;48.542;13.232;2022-08-19T17:12:04;24.00;1.00
62072;DHT22;48031;48.542;13.232;2022-08-19T17:16:58;23.90;1.00
62072;DHT22;48031;48.542;13.232;2022-08-19T17:19:26;24.80;1.00
62072;DHT22;48031;48.542;13.232;2022-08-19T17:21:53;23.70;1.00
62072;DHT22;48031;48.542;13.232;2022-08-19T17:24:21;23.40;1.00
62072;DHT22;48031;48.542;13.232;2022-08-19T17:26:48;23.30;1.00
62072;DHT22;48031;48.542;13.232;2022-08-19T17:29:15;23.50;1.00
62072;DHT22;48031;48.542;13.232;2022-08-19T17:31:42;23.30;1.00
62072;DHT22;48031;48.542;13.232;2022-08-19T17:34:09;23.50;1.00
62072;DHT22;48031;48.542;13.232;2022-08-19T17:36:36;23.30;1.00
62072;DHT22;48031;48.542;13.232;2022-08-19T17:39:03;23.10;1.00
62072;DHT22;48031;48.542;13.232;2022-08-19T17:41:31;22.80;1.00
62072;DHT22;48031;48.542;13.232;2022-08-19T17:44:00;22.60;1.00
62072;DHT22;48031;48.542;13.232;2022-08-19T17:46:30;22.80;1.00
62072;DHT22;48031;48.542;13.232;2022-08-19T17:48:57;22.90;1.00
62072;DHT22;48031;48.542;13.232;2022-08-19T17:51:36;23.40;1.00
62072;DHT22;48031;48.542;13.232;2022-08-19T17:54:09;22.60;1.00
62072;DHT22;48031;48.542;13.232;2022-08-19T17:56:36;22.80;1.00
62072;DHT22;48031;48.542;13.232;2022-08-19T17:59:04;22.30;14.20
62072;DHT22;48031;48.542;13.232;2022-08-19T18:01:35;22.20;41.60
62072;DHT22;48031;48.542;13.232;2022-08-19T18:16:45;20.90;99.90
62072;DHT22;48031;48.542;13.232;2022-08-19T18:19:12;20.00;99.90
62072;DHT22;48031;48.542;13.232;2022-08-19T18:52:46;20.30;99.90
62072;DHT22;48031;48.542;13.232;2022-08-19T19:12:28;20.30;99.90
62072;DHT22;48031;48.542;13.232;2022-08-19T19:22:21;20.30;99.90
62072;DHT22;48031;48.542;13.232;2022-08-19T19:24:49;20.40;99.90
62072;DHT22;48031;48.542;13.232;2022-08-19T19:42:11;20.30;99.90
62072;DHT22;48031;48.542;13.232;2022-08-19T19:44:47;19.50;99.90
62072;DHT22;48031;48.542;13.232;2022-08-19T19:47:15;19.60;99.90
62072;DHT22;48031;48.542;13.232;2022-08-19T19:52:30;19.50;99.90
62072;DHT22;48031;48.542;13.232;2022-08-19T20:02:20;19.60;99.90
62072;DHT22;48031;48.542;13.232;2022-08-19T20:12:25;19.50;99.90
62072;DHT22;48031;48.542;13.232;2022-08-19T20:14:52;19.50;99.90
62072;DHT22;48031;48.542;13.232;2022-08-19T20:17:19;19.80;99.90
62072;DHT22;48031;48.542;13.232;2022-08-19T20:22:13;19.80;99.90
62072;DHT22;48031;48.542;13.232;2022-08-19T20:24:41;19.20;99.90
62072;DHT22;48031;48.542;13.232;2022-08-19T20:27:08;19.50;99.90
62072;DHT22;48031;48.542;13.232;2022-08-19T20:32:07;19.80;99.90
62072;DHT22;48031;48.542;13.232;2022-08-19T21:19:00;19.90;99.90
62072;DHT22;48031;48.542;13.232;2022-08-19T21:21:27;19.30;99.90
62072;DHT22;48031;48.542;13.232;2022-08-19T21:23:54;19.80;99.90
62072;DHT22;48031;48.542;13.232;2022-08-19T21:28:50;20.00;99.90
62072;DHT22;48031;48.542;13.232;2022-08-19T21:33:44;20.50;99.90
62072;DHT22;48031;48.542;13.232;2022-08-19T21:48:28;20.50;99.90
62072;DHT22;48031;48.542;13.232;2022-08-19T21:50:55;19.60;99.90
62072;DHT22;48031;48.542;13.232;2022-08-19T21:53:22;19.50;99.90
62072;DHT22;48031;48.542;13.232;2022-08-19T22:08:18;19.60;99.90
62072;DHT22;48031;48.542;13.232;2022-08-19T22:13:15;20.30;99.90
62072;DHT22;48031;48.542;13.232;2022-08-19T22:18:11;20.10;99.90
62072;DHT22;48031;48.542;13.232;2022-08-19T22:20:39;19.80;99.90
62072;DHT22;48031;48.542;13.232;2022-08-19T22:28:02;20.30;99.90
62072;DHT22;48031;48.542;13.232;2022-08-19T22:30:31;20.20;99.90
62072;DHT22;48031;48.542;13.232;2022-08-19T22:33:01;19.20;99.90
62072;DHT22;48031;48.542;13.232;2022-08-19T22:35:29;20.40;99.90
62072;DHT22;48031;48.542;13.232;2022-08-19T22:37:57;20.30;99.90
62072;DHT22;48031;48.542;13.232;2022-08-19T22:40:28;19.70;99.90
62072;DHT22;48031;48.542;13.232;2022-08-19T22:42:59;19.30;99.90
62072;DHT22;48031;48.542;13.232;2022-08-19T22:45:28;19.30;99.90
62072;DHT22;48031;48.542;13.232;2022-08-19T22:50:22;18.60;99.90
62072;DHT22;48031;48.542;13.232;2022-08-19T22:52:54;19.50;99.90
62072;DHT22;48031;48.542;13.232;2022-08-19T22:55:26;19.10;99.90
62072;DHT22;48031;48.542;13.232;2022-08-19T22:57:53;19.40;99.90
62072;DHT22;48031;48.542;13.232;2022-08-19T23:00:21;19.30;99.90
62072;DHT22;48031;48.542;13.232;2022-08-19T23:02:48;20.20;99.90
62072;DHT22;48031;48.542;13.232;2022-08-19T23:05:18;19.40;99.90
62072;DHT22;48031;48.542;13.232;2022-08-19T23:07:48;19.60;99.90
62072;DHT22;48031;48.542;13.232;2022-08-19T23:10:19;19.40;99.90
62072;DHT22;48031;48.542;13.232;2022-08-19T23:12:54;19.90;99.90
62072;DHT22;48031;48.542;13.232;2022-08-19T23:15:22;19.60;99.90
62072;DHT22;48031;48.542;13.232;2022-08-19T23:17:52;20.10;99.90
62072;DHT22;48031;48.542;13.232;2022-08-19T23:20:19;20.10;99.90
62072;DHT22;48031;48.542;13.232;2022-08-19T23:22:46;19.50;99.90
62072;DHT22;48031;48.542;13.232;2022-08-19T23:25:22;19.90;99.90
62072;DHT22;48031;48.542;13.232;2022-08-19T23:27:49;18.40;99.90
62072;DHT22;48031;48.542;13.232;2022-08-19T23:30:37;19.40;99.90
62072;DHT22;48031;48.542;13.232;2022-08-19T23:33:06;19.70;99.90
62072;DHT22;48031;48.542;13.232;2022-08-19T23:35:39;19.60;99.90
62072;DHT22;48031;48.542;13.232;2022-08-19T23:38:07;18.00;99.90
62072;DHT22;48031;48.542;13.232;2022-08-19T23:40:35;19.60;99.90
62072;DHT22;48031;48.542;13.232;2022-08-19T23:43:03;17.90;99.90
62072;DHT22;48031;48.542;13.232;2022-08-19T23:45:35;20.10;99.90
62072;DHT22;48031;48.542;13.232;2022-08-19T23:48:04;18.90;99.90
62072;DHT22;48031;48.542;13.232;2022-08-19T23:50:31;18.30;99.90
62072;DHT22;48031;48.542;13.232;2022-08-19T23:52:58;18.80;99.90
62072;DHT22;48031;48.542;13.232;2022-08-19T23:55:28;18.20;99.90
62072;DHT22;48031;48.542;13.232;2022-08-19T23:57:55;20.20;99.90
